Time;durP1;ratioP1;P1;durP2;ratioP2;P2;SDS_P1;SDS_P2;PMS_P1;PMS_P2;Temp;Humidity;BMP_temperature;BMP_pressure;BME280_temperature;BME280_humidity;BME280_pressure;Samples;Min_cycle;Max_cycle;Signal;HPM_P1;HPM_P2
2023/01/10 18:13:32;;;;;;;10.63;2.80;;;;;;;1.99;100.00;96667.94;4905391;29;20282;-84
2023/01/10 18:15:59;;;;;;;5.75;2.58;;;;;;;2.00;100.00;96669.59;4872095;29;20044;-82
2023/01/10 18:18:26;;;;;;;7.73;2.93;;;;;;;1.99;100.00;96667.94;4886347;29;20029;-84
2023/01/10 18:20:56;;;;;;;9.10;3.30;;;;;;;1.92;100.00;96672.69;4877468;29;20035;-83
2023/01/10 18:23:25;;;;;;;8.13;4.40;;;;;;;1.92;100.00;96666.66;4855768;29;20040;-83
2023/01/10 18:25:51;;;;;;;10.10;4.00;;;;;;;1.92;100.00;96672.69;4860825;29;20037;-83
2023/01/10 18:28:17;;;;;;;9.00;3.40;;;;;;;1.91;100.00;96659.78;4877622;29;20123;-82
2023/01/10 18:31:01;;;;;;;6.60;3.27;;;;;;;1.91;100.00;96662.38;4866487;29;20037;-83
2023/01/10 18:33:27;;;;;;;6.93;3.00;;;;;;;1.94;100.00;96670.81;4865298;29;20040;-85
2023/01/10 18:35:54;;;;;;;8.20;2.97;;;;;;;1.89;100.00;96657.31;4876754;29;20077;-84
2023/01/10 18:38:20;;;;;;;11.50;3.20;;;;;;;1.87;100.00;96654.78;4865251;29;20052;-84
2023/01/10 18:40:50;;;;;;;12.07;4.63;;;;;;;1.81;100.00;96649.16;4860668;29;20037;-83
2023/01/10 18:43:18;;;;;;;11.73;3.63;;;;;;;1.80;100.00;96639.72;4878916;29;20037;-84
2023/01/10 18:45:46;;;;;;;8.93;3.93;;;;;;;1.78;100.00;96646.78;4866893;29;20044;-85
2023/01/10 18:48:25;;;;;;;14.10;4.50;;;;;;;1.83;100.00;96642.94;4881270;29;20040;-85
2023/01/10 18:50:57;;;;;;;14.77;5.20;;;;;;;1.84;100.00;96638.59;4887513;29;20037;-85
2023/01/10 18:53:28;;;;;;;10.03;3.57;;;;;;;1.84;100.00;96636.00;4872082;29;20036;-85
2023/01/10 18:55:58;;;;;;;7.30;2.60;;;;;;;1.86;100.00;96632.41;4897603;29;20040;-85
2023/01/10 18:58:31;;;;;;;12.03;2.70;;;;;;;1.89;100.00;96636.56;4898611;29;20041;-84
2023/01/10 19:00:56;;;;;;;7.67;2.57;;;;;;;1.85;100.00;96635.94;4913129;29;20065;-84
2023/01/10 19:03:23;;;;;;;7.30;2.43;;;;;;;1.84;100.00;96629.06;4887995;29;20044;-85
2023/01/10 19:06:09;;;;;;;10.70;2.97;;;;;;;1.93;100.00;96632.84;4879247;29;20127;-85
2023/01/10 19:08:38;;;;;;;6.73;1.60;;;;;;;1.80;100.00;96617.22;4862160;29;20075;-85
2023/01/10 19:11:09;;;;;;;6.77;2.17;;;;;;;1.84;100.00;96620.44;4885034;29;20037;-84
2023/01/10 19:13:37;;;;;;;9.07;2.83;;;;;;;1.83;100.00;96613.59;4868114;29;20043;-85
2023/01/10 19:16:14;;;;;;;10.83;2.70;;;;;;;1.83;100.00;96600.63;4870402;29;20032;-85
2023/01/10 19:18:43;;;;;;;8.43;2.70;;;;;;;1.82;100.00;96609.34;4881356;29;20036;-85
2023/01/10 19:21:14;;;;;;;7.37;2.47;;;;;;;1.80;100.00;96611.19;4867252;29;20038;-85
2023/01/10 19:23:43;;;;;;;7.20;2.33;;;;;;;1.91;100.00;96613.94;4865281;29;20032;-85
2023/01/10 19:26:13;;;;;;;8.00;2.83;;;;;;;1.89;100.00;96610.63;4862808;29;20092;-85
2023/01/10 19:28:42;;;;;;;15.13;3.47;;;;;;;1.94;100.00;96603.38;4869462;29;20603;-84
2023/01/10 19:31:14;;;;;;;11.10;3.73;;;;;;;1.98;100.00;96596.22;4859894;29;20104;-85
2023/01/10 19:33:58;;;;;;;15.32;4.65;;;;;;;2.02;100.00;96588.19;4862549;29;20036;-85
2023/01/10 19:36:24;;;;;;;6.68;2.00;;;;;;;2.06;100.00;96586.22;4884570;29;20036;-84
2023/01/10 19:38:56;;;;;;;8.93;2.00;;;;;;;2.06;100.00;96612.16;4866664;29;20037;-84
2023/01/10 19:41:26;;;;;;;7.17;1.70;;;;;;;2.07;100.00;96600.84;4865668;29;20139;-84
2023/01/10 19:43:57;;;;;;;5.77;1.60;;;;;;;2.07;100.00;96601.66;4860648;29;20028;-84
2023/01/10 19:46:32;;;;;;;4.80;1.40;;;;;;;2.12;100.00;96591.00;4864314;29;20029;-84
2023/01/10 19:49:06;;;;;;;5.37;1.70;;;;;;;2.16;100.00;96589.06;4859121;29;20037;-85
2023/01/10 19:51:46;;;;;;;6.27;2.20;;;;;;;2.18;100.00;96590.63;4862902;29;20040;-85
2023/01/10 19:54:12;;;;;;;9.97;2.47;;;;;;;2.20;100.00;96585.31;4860715;29;20080;-85
2023/01/10 19:56:43;;;;;;;9.57;2.70;;;;;;;2.17;100.00;96586.34;4863631;29;20411;-85
2023/01/10 19:59:16;;;;;;;5.87;2.13;;;;;;;2.23;100.00;96593.75;4884180;29;20040;-85
2023/01/10 20:02:25;;;;;;;6.40;1.93;;;;;;;2.23;100.00;96578.16;4895709;29;20036;-84
2023/01/10 20:05:08;;;;;;;7.53;1.97;;;;;;;2.28;100.00;96578.72;4862766;29;20092;-84
2023/01/10 20:07:49;;;;;;;5.70;1.80;;;;;;;2.33;100.00;96586.19;4903367;29;20040;-84
2023/01/10 20:10:18;;;;;;;7.40;1.90;;;;;;;2.32;100.00;96582.78;4894297;29;20044;-85
2023/01/10 20:12:51;;;;;;;6.23;1.63;;;;;;;2.36;100.00;96580.81;4878697;29;20048;-84
2023/01/10 20:15:21;;;;;;;11.70;3.15;;;;;;;2.41;100.00;96576.13;4868138;29;20036;-84
2023/01/10 20:17:47;;;;;;;11.57;3.03;;;;;;;2.42;100.00;96583.00;4875528;29;20048;-86
2023/01/10 20:20:19;;;;;;;6.40;1.90;;;;;;;2.41;100.00;96578.72;4887655;29;20044;-85
2023/01/10 20:22:46;;;;;;;8.77;2.83;;;;;;;2.43;100.00;96586.44;4861591;29;20110;-85
2023/01/10 20:25:16;;;;;;;12.13;4.00;;;;;;;2.39;100.00;96591.00;4861471;29;20092;-85
2023/01/10 20:27:45;;;;;;;10.83;3.37;;;;;;;2.45;100.00;96588.00;4863684;29;20037;-85
2023/01/10 20:30:13;;;;;;;12.07;4.90;;;;;;;2.46;100.00;96588.81;4885590;29;20037;-84
2023/01/10 20:32:53;;;;;;;9.87;4.10;;;;;;;2.48;100.00;96579.16;4875071;29;20055;-86
2023/01/10 20:35:20;;;;;;;6.50;2.20;;;;;;;2.49;100.00;96584.25;4874972;29;20457;-84
2023/01/10 20:37:58;;;;;;;10.30;3.07;;;;;;;2.43;100.00;96578.63;4860053;29;20045;-84
2023/01/10 20:40:42;;;;;;;4.47;1.87;;;;;;;2.48;100.00;96587.81;4887474;29;20040;-85
2023/01/10 20:43:08;;;;;;;7.23;2.70;;;;;;;2.47;100.00;96575.72;4857407;29;20033;-86
2023/01/10 20:45:34;;;;;;;6.77;2.20;;;;;;;2.53;100.00;96569.31;4861495;29;20023;-84
2023/01/10 20:48:00;;;;;;;3.70;1.20;;;;;;;2.49;100.00;96562.66;4864985;29;20029;-84
2023/01/10 20:50:33;;;;;;;8.03;1.93;;;;;;;2.50;100.00;96559.94;4863105;29;20605;-91
2023/01/10 20:53:01;;;;;;;6.07;1.48;;;;;;;2.58;100.00;96556.84;4862017;29;20519;-91
2023/01/10 20:55:27;;;;;;;8.57;2.97;;;;;;;2.56;100.00;96563.91;4877774;29;20044;-91
2023/01/10 20:58:00;;;;;;;4.83;1.70;;;;;;;2.60;100.00;96560.19;4865544;29;20036;-90
2023/01/10 21:00:29;;;;;;;4.60;1.48;;;;;;;2.60;100.00;96558.41;4866081;29;20045;-90
2023/01/10 21:02:55;;;;;;;5.73;1.50;;;;;;;2.71;100.00;96554.25;4877861;29;20040;-90
2023/01/10 21:05:21;;;;;;;6.50;1.70;;;;;;;2.72;100.00;96548.16;4864512;29;20044;-89
2023/01/10 21:08:00;;;;;;;6.87;1.83;;;;;;;2.67;100.00;96543.25;4861835;29;20064;-91
2023/01/10 21:10:36;;;;;;;6.47;1.60;;;;;;;2.67;100.00;96547.63;4868919;29;20181;-90
2023/01/10 21:13:02;;;;;;;4.20;1.30;;;;;;;2.65;100.00;96542.53;4876382;29;20361;-88
2023/01/10 21:15:28;;;;;;;2.87;1.00;;;;;;;2.68;100.00;96533.69;4872965;29;20103;-87
2023/01/10 21:17:53;;;;;;;9.73;2.10;;;;;;;2.75;100.00;96528.00;4891912;29;20036;-87
2023/01/10 21:20:19;;;;;;;5.73;1.53;;;;;;;2.71;100.00;96526.53;4881413;29;20035;-87
2023/01/10 21:22:45;;;;;;;13.13;3.20;;;;;;;2.78;100.00;96530.41;4860842;29;20563;-88
2023/01/10 21:25:11;;;;;;;11.97;4.17;;;;;;;2.83;100.00;96532.66;4867734;29;20029;-87
2023/01/10 21:27:43;;;;;;;6.40;2.30;;;;;;;2.94;100.00;96537.94;4869346;29;20063;-90
2023/01/10 21:30:11;;;;;;;10.02;3.80;;;;;;;2.97;100.00;96535.16;4863541;29;20043;-88
2023/01/10 21:32:39;;;;;;;7.80;2.60;;;;;;;2.98;100.00;96533.38;4863588;29;20536;-87
2023/01/10 21:35:06;;;;;;;6.53;2.23;;;;;;;3.01;100.00;96535.75;4861420;29;20040;-88
2023/01/10 21:37:35;;;;;;;8.47;2.37;;;;;;;3.08;100.00;96524.00;4864452;29;20037;-88
2023/01/10 21:40:01;;;;;;;7.83;1.63;;;;;;;3.00;100.00;96521.94;4862932;29;20028;-88
2023/01/10 21:42:34;;;;;;;4.97;1.30;;;;;;;3.03;100.00;96521.75;4875669;29;20063;-88
2023/01/10 21:45:05;;;;;;;5.38;1.65;;;;;;;3.08;100.00;96516.22;4865904;29;20131;-88
2023/01/10 21:47:37;;;;;;;6.57;1.43;;;;;;;3.09;100.00;96517.06;4873335;29;20072;-88
2023/01/10 21:50:04;;;;;;;5.70;1.60;;;;;;;3.09;100.00;96517.06;4866031;29;20131;-88
2023/01/10 21:52:30;;;;;;;4.73;1.37;;;;;;;3.09;100.00;96510.09;4883783;29;20032;-88
2023/01/10 21:55:00;;;;;;;5.60;1.80;;;;;;;3.08;100.00;96516.22;4865699;29;20545;-88
2023/01/10 21:57:26;;;;;;;6.13;1.87;;;;;;;3.13;100.00;96513.31;4871407;29;20041;-88
2023/01/10 21:59:53;;;;;;;3.77;1.40;;;;;;;3.17;100.00;96504.38;4875089;29;20025;-88
2023/01/10 22:02:21;;;;;;;5.43;1.30;;;;;;;3.17;100.00;96506.97;4883109;29;20123;-88
2023/01/10 22:04:49;;;;;;;8.43;1.77;;;;;;;3.23;100.00;96507.38;4856869;29;20052;-88
2023/01/10 22:07:16;;;;;;;2.17;0.80;;;;;;;3.26;100.00;96503.72;4867548;29;20728;-88
2023/01/10 22:09:42;;;;;;;4.07;1.03;;;;;;;3.23;100.00;96503.94;4872435;29;20037;-88
2023/01/10 22:12:16;;;;;;;6.50;1.77;;;;;;;3.24;100.00;96508.19;4870469;29;20031;-88
2023/01/10 22:14:47;;;;;;;6.20;1.00;;;;;;;3.20;100.00;96506.75;4877005;29;20041;-88
2023/01/10 22:17:14;;;;;;;5.17;1.57;;;;;;;3.15;100.00;96503.63;4865182;29;20044;-88
2023/01/10 22:19:41;;;;;;;7.20;1.97;;;;;;;3.14;100.00;96501.97;4866974;29;20112;-88
2023/01/10 22:22:09;;;;;;;5.53;1.33;;;;;;;3.12;100.00;96503.84;4891554;29;20172;-88
2023/01/10 22:24:35;;;;;;;3.40;1.07;;;;;;;3.10;100.00;96503.13;4897509;29;20646;-88
2023/01/10 22:27:10;;;;;;;3.33;1.00;;;;;;;3.09;100.00;96499.72;4884355;29;20056;-89
2023/01/10 22:29:56;;;;;;;4.13;1.10;;;;;;;3.08;100.00;96503.22;4879094;29;20067;-88
2023/01/10 22:32:23;;;;;;;4.03;1.20;;;;;;;3.00;100.00;96501.16;4869416;29;20103;-88
2023/01/10 22:34:50;;;;;;;5.50;1.30;;;;;;;3.02;100.00;96499.31;4870827;29;20074;-88
2023/01/10 22:37:16;;;;;;;6.80;1.77;;;;;;;3.01;100.00;96492.41;4870871;29;20100;-88
2023/01/10 22:39:43;;;;;;;5.07;1.00;;;;;;;2.98;100.00;96492.63;4863757;29;20055;-89
2023/01/10 22:42:12;;;;;;;6.53;1.30;;;;;;;2.94;100.00;96501.59;4866421;29;20033;-89
2023/01/10 22:44:38;;;;;;;4.07;1.10;;;;;;;2.92;100.00;96494.81;4871565;29;20045;-89
2023/01/10 22:47:04;;;;;;;4.90;1.20;;;;;;;2.86;100.00;96501.28;4865933;29;20094;-89
2023/01/10 22:49:38;;;;;;;6.33;0.80;;;;;;;2.84;100.00;96505.75;4865780;29;20038;-89
2023/01/10 22:52:07;;;;;;;5.73;1.30;;;;;;;2.80;100.00;96505.13;4897322;29;20044;-89
2023/01/10 22:54:34;;;;;;;4.07;0.90;;;;;;;2.82;100.00;96503.28;4865227;29;20040;-89
2023/01/10 22:57:03;;;;;;;3.80;1.00;;;;;;;2.79;100.00;96497.47;4884304;29;20036;-89
2023/01/10 22:59:32;;;;;;;3.80;1.07;;;;;;;2.75;100.00;96496.84;4877940;29;20037;-88
2023/01/10 23:01:57;;;;;;;5.60;1.40;;;;;;;2.74;100.00;96495.16;4872837;29;20043;-89
2023/01/10 23:04:23;;;;;;;4.87;1.70;;;;;;;2.72;100.00;96491.03;4862356;29;20040;-89
2023/01/10 23:06:50;;;;;;;7.77;1.30;;;;;;;2.74;100.00;96489.13;4858281;29;20092;-89
2023/01/10 23:09:16;;;;;;;3.63;1.20;;;;;;;2.69;100.00;96496.44;4864591;29;20136;-89
2023/01/10 23:11:42;;;;;;;4.13;1.13;;;;;;;2.76;100.00;96488.09;4871589;29;20131;-89
2023/01/10 23:14:08;;;;;;;4.00;1.07;;;;;;;2.69;100.00;96488.63;4883274;29;20148;-89
2023/01/10 23:16:34;;;;;;;4.67;1.53;;;;;;;2.75;100.00;96485.59;4879013;29;20040;-89
2023/01/10 23:19:00;;;;;;;6.60;1.50;;;;;;;2.74;100.00;96483.94;4878014;29;20024;-89
2023/01/10 23:21:28;;;;;;;8.83;2.50;;;;;;;2.72;100.00;96481.47;4883022;29;20085;-89
2023/01/10 23:23:54;;;;;;;7.30;1.43;;;;;;;2.76;100.00;96477.72;4899093;29;20044;-89
2023/01/10 23:26:25;;;;;;;4.97;1.47;;;;;;;2.78;100.00;96475.00;4864197;29;20033;-89
2023/01/10 23:28:51;;;;;;;8.40;1.30;;;;;;;2.85;100.00;96465.88;4861811;29;20044;-89
2023/01/10 23:31:21;;;;;;;4.50;1.57;;;;;;;2.89;100.00;96469.91;4869967;29;20040;-89
2023/01/10 23:33:48;;;;;;;4.40;1.10;;;;;;;2.89;100.00;96469.91;4884134;29;20063;-89
2023/01/10 23:36:23;;;;;;;3.97;1.40;;;;;;;2.90;100.00;96470.75;4878762;29;20055;-89
2023/01/10 23:38:55;;;;;;;5.10;1.40;;;;;;;2.91;100.00;96470.63;4873265;29;20120;-89
2023/01/10 23:41:24;;;;;;;5.47;1.63;;;;;;;2.87;100.00;96469.19;4903269;29;20032;-89
2023/01/10 23:43:50;;;;;;;2.50;0.70;;;;;;;2.86;100.00;96467.53;4901526;29;20058;-89
2023/01/10 23:46:20;;;;;;;4.13;1.17;;;;;;;2.81;100.00;96470.41;4867475;29;20036;-89
2023/01/10 23:48:47;;;;;;;3.03;0.97;;;;;;;2.83;100.00;96465.13;4872933;29;20047;-89
2023/01/10 23:51:13;;;;;;;2.97;0.90;;;;;;;2.85;100.00;96463.28;4882500;29;20040;-89
2023/01/10 23:53:39;;;;;;;2.30;0.90;;;;;;;2.77;100.00;96457.75;4866468;29;20120;-89
2023/01/10 23:56:11;;;;;;;4.83;1.10;;;;;;;2.75;100.00;96459.63;4871213;29;20048;-89
2023/01/10 23:58:37;;;;;;;5.03;1.47;;;;;;;2.77;100.00;96457.75;4888057;29;20032;-89
